Time;durP1;ratioP1;P1;durP2;ratioP2;P2;SDS_P1;SDS_P2;PMS_P1;PMS_P2;Temp;Humidity;BMP_temperature;BMP_pressure;BME280_temperature;BME280_humidity;BME280_pressure;Samples;Min_cycle;Max_cycle;Signal;HPM_P1;HPM_P2
2023/01/04 00:01:32;;;;;;;8.77;3.03;;;;;;;6.76;100.00;101635.81;5046416;28;20069;-84
2023/01/04 00:03:59;;;;;;;6.45;2.90;;;;;;;6.78;100.00;101625.41;4990125;28;20495;-84
2023/01/04 00:06:27;;;;;;;6.97;2.78;;;;;;;6.80;100.00;101628.94;5017202;28;20044;-83
2023/01/04 00:08:54;;;;;;;5.80;2.60;;;;;;;6.79;100.00;101619.34;4999006;28;20046;-84
2023/01/04 00:11:23;;;;;;;13.57;2.80;;;;;;;6.80;100.00;101616.72;5032322;28;20061;-84
2023/01/04 00:13:55;;;;;;;8.10;2.60;;;;;;;6.82;100.00;101608.94;5043784;28;20045;-83
2023/01/04 00:16:25;;;;;;;6.45;2.50;;;;;;;6.81;100.00;101587.09;5055854;28;20065;-83
2023/01/04 00:18:53;;;;;;;10.02;2.65;;;;;;;6.87;100.00;101594.25;5011619;28;20061;-85
2023/01/04 00:21:29;;;;;;;8.57;2.63;;;;;;;6.89;100.00;101582.09;5026193;28;20487;-85
2023/01/04 00:23:58;;;;;;;9.93;2.80;;;;;;;6.91;100.00;101577.78;5032016;28;20530;-85
2023/01/04 00:26:29;;;;;;;8.20;3.28;;;;;;;6.91;100.00;101566.41;5029686;28;20049;-85
2023/01/04 00:28:59;;;;;;;7.90;2.88;;;;;;;6.91;100.00;101554.19;5028761;28;20061;-85
2023/01/04 00:31:29;;;;;;;8.43;2.35;;;;;;;6.91;100.00;101551.56;5028192;28;20050;-84
2023/01/04 00:33:59;;;;;;;6.20;2.83;;;;;;;6.92;100.00;101548.13;5007872;28;20957;-85
2023/01/04 00:36:27;;;;;;;8.10;2.67;;;;;;;6.94;100.00;101540.31;5037012;28;20113;-84
2023/01/04 00:39:07;;;;;;;9.48;2.90;;;;;;;6.95;100.00;101539.44;5024792;28;20040;-84
2023/01/04 00:41:45;;;;;;;6.50;2.90;;;;;;;6.97;100.00;101529.91;5049825;28;20056;-86
2023/01/04 00:44:30;;;;;;;10.65;3.15;;;;;;;6.98;100.00;101524.72;5018278;28;20039;-86
2023/01/04 00:46:58;;;;;;;6.78;2.45;;;;;;;6.98;100.00;101522.09;5010256;28;20519;-85
2023/01/04 00:49:27;;;;;;;4.20;2.50;;;;;;;6.99;100.00;101513.41;5043321;28;20439;-85
2023/01/04 00:51:55;;;;;;;5.20;2.65;;;;;;;6.98;100.00;101516.84;5031975;28;20457;-85
2023/01/04 00:54:23;;;;;;;6.90;2.88;;;;;;;6.99;100.00;101502.00;5054750;28;20060;-85
2023/01/04 00:56:51;;;;;;;6.43;3.13;;;;;;;6.99;100.00;101488.91;5032523;28;21362;-85
2023/01/04 00:59:20;;;;;;;7.68;3.28;;;;;;;6.98;100.00;101480.16;5055301;28;20033;-84
2023/01/04 01:01:48;;;;;;;7.30;3.17;;;;;;;6.99;100.00;101471.47;5030943;28;20037;-83
2023/01/04 01:04:20;;;;;;;4.82;3.03;;;;;;;6.98;100.00;101466.19;5021316;28;20049;-84
2023/01/04 01:06:48;;;;;;;7.32;3.50;;;;;;;6.97;100.00;101453.91;5016341;28;20049;-84
2023/01/04 01:09:16;;;;;;;7.97;3.50;;;;;;;6.97;100.00;101464.38;5036722;28;20049;-84
2023/01/04 01:11:44;;;;;;;7.95;3.72;;;;;;;6.96;100.00;101460.91;5016044;28;20282;-84
2023/01/04 01:14:17;;;;;;;10.13;3.17;;;;;;;6.96;100.00;101437.31;5029714;28;20513;-85
2023/01/04 01:16:45;;;;;;;2.92;2.47;;;;;;;6.95;100.00;101435.53;5035011;28;20045;-85
2023/01/04 01:19:25;;;;;;;10.48;3.45;;;;;;;6.95;100.00;101447.75;5050377;28;20518;-85
2023/01/04 01:21:53;;;;;;;8.95;3.13;;;;;;;6.94;100.00;101439.00;4995967;28;20499;-85
2023/01/04 01:24:21;;;;;;;7.80;2.75;;;;;;;6.94;100.00;101419.78;5037273;28;20049;-84
2023/01/04 01:26:48;;;;;;;3.60;2.53;;;;;;;6.96;100.00;101429.44;5036658;28;20461;-85
2023/01/04 01:29:16;;;;;;;5.85;3.00;;;;;;;6.96;100.00;101413.72;5034024;28;20046;-84
2023/01/04 01:31:43;;;;;;;5.75;2.78;;;;;;;6.96;100.00;101412.84;5019084;28;20048;-84
2023/01/04 01:34:11;;;;;;;4.57;2.83;;;;;;;6.99;100.00;101410.28;5036106;28;20060;-86
2023/01/04 01:36:38;;;;;;;7.50;2.78;;;;;;;6.98;100.00;101396.31;4990715;28;20069;-84
2023/01/04 01:39:05;;;;;;;8.27;2.90;;;;;;;6.99;100.00;101387.63;5008681;28;20037;-84
2023/01/04 01:41:34;;;;;;;3.67;2.25;;;;;;;6.99;100.00;101382.38;5007154;28;20061;-85
2023/01/04 01:44:39;;;;;;;8.88;3.33;;;;;;;7.00;100.00;101373.66;5013760;28;20423;-84
2023/01/04 01:47:13;;;;;;;5.40;2.70;;;;;;;6.99;100.00;101376.22;5046945;28;22742;-85
2023/01/04 01:49:42;;;;;;;5.05;2.80;;;;;;;6.98;100.00;101369.22;5017024;28;20042;-85
2023/01/04 01:52:16;;;;;;;6.72;3.10;;;;;;;6.98;100.00;101349.16;5021924;28;20045;-84
2023/01/04 01:54:53;;;;;;;9.77;2.90;;;;;;;6.97;100.00;101355.22;5034399;28;20045;-84
2023/01/04 01:57:24;;;;;;;6.65;2.70;;;;;;;6.97;100.00;101362.19;5053244;28;20041;-86
2023/01/04 01:59:56;;;;;;;6.13;3.17;;;;;;;6.97;100.00;101346.47;5046341;28;20060;-84
2023/01/04 02:02:26;;;;;;;5.25;2.60;;;;;;;6.96;100.00;101339.47;5020020;28;20046;-85
2023/01/04 02:04:54;;;;;;;8.00;2.97;;;;;;;6.95;100.00;101322.84;4998097;28;20046;-85
2023/01/04 02:07:26;;;;;;;4.43;2.50;;;;;;;6.95;100.00;101316.72;4998691;28;20049;-85
2023/01/04 02:09:55;;;;;;;6.35;3.00;;;;;;;6.94;100.00;101315.84;5029587;28;20042;-85
2023/01/04 02:12:24;;;;;;;3.20;2.45;;;;;;;6.95;100.00;101307.13;5018826;28;20056;-85
2023/01/04 02:14:51;;;;;;;3.58;3.15;;;;;;;6.94;100.00;101304.50;5028747;28;20072;-86
2023/01/04 02:18:00;;;;;;;5.00;2.53;;;;;;;6.94;100.00;101294.03;5035435;28;20418;-85
2023/01/04 02:20:53;;;;;;;4.07;2.60;;;;;;;6.93;100.00;101282.63;4964209;28;20065;-86
2023/01/04 02:23:26;;;;;;;6.85;2.92;;;;;;;6.93;100.00;101280.00;4971500;28;20085;-85
2023/01/04 02:26:06;;;;;;;4.55;2.85;;;;;;;6.92;100.00;101270.41;5011004;28;20064;-86
2023/01/04 02:28:54;;;;;;;4.28;2.80;;;;;;;6.93;100.00;101280.00;5019152;28;20491;-86
2023/01/04 02:31:34;;;;;;;4.90;2.67;;;;;;;6.95;100.00;101256.47;5030347;28;20056;-86
2023/01/04 02:34:22;;;;;;;3.00;2.80;;;;;;;6.96;100.00;101237.28;5026388;28;20789;-86
2023/01/04 02:37:07;;;;;;;2.97;2.65;;;;;;;6.97;100.00;101254.78;5018844;28;20054;-85
2023/01/04 02:39:56;;;;;;;4.13;2.63;;;;;;;6.97;100.00;101239.94;5014045;28;20454;-86
2023/01/04 02:45:55;;;;;;;3.78;2.10;;;;;;;7.00;100.00;101226.03;5032155;28;20068;-86
2023/01/04 02:51:27;;;;;;;4.30;2.28;;;;;;;7.03;100.00;101205.13;5009883;28;20037;-86
2023/01/04 02:54:02;;;;;;;4.22;2.20;;;;;;;7.03;100.00;101198.19;5020229;28;20054;-86
2023/01/04 02:56:37;;;;;;;3.47;2.10;;;;;;;7.05;100.00;101202.53;5022849;28;20046;-86
2023/01/04 02:59:34;;;;;;;3.47;2.25;;;;;;;7.06;100.00;101194.72;5015458;28;20061;-86
2023/01/04 03:06:28;;;;;;;1.70;1.60;;;;;;;7.08;100.00;101187.78;5017394;28;20071;-85
2023/01/04 03:08:26;;;;;;;2.72;1.40;;;;;;;7.09;100.00;101168.59;5010585;28;20406;-86
2023/01/04 03:10:57;;;;;;;2.13;1.75;;;;;;;7.10;100.00;101162.50;5018097;28;20057;-86
2023/01/04 03:13:31;;;;;;;1.75;1.65;;;;;;;7.14;100.00;101166.06;5044917;28;20386;-86
2023/01/04 03:16:18;;;;;;;2.03;1.90;;;;;;;7.15;100.00;101163.50;5028733;28;21003;-86
2023/01/04 03:18:51;;;;;;;2.03;1.80;;;;;;;7.16;100.00;101169.59;5015872;28;20056;-87
2023/01/04 03:21:22;;;;;;;2.08;1.67;;;;;;;7.16;100.00;101160.00;5011397;28;20052;-86
2023/01/04 03:35:36;;;;;;;1.45;1.35;;;;;;;7.22;100.00;101126.09;5034257;28;20050;-85
2023/01/04 03:50:12;;;;;;;1.65;1.33;;;;;;;7.33;100.00;101094.81;5030106;28;20048;-86
2023/01/04 03:52:43;;;;;;;1.65;1.50;;;;;;;7.35;100.00;101087.91;4996488;28;20511;-86
2023/01/04 03:55:12;;;;;;;3.15;1.70;;;;;;;7.37;100.00;101085.28;5032950;28;20050;-85
2023/01/04 03:57:41;;;;;;;1.63;1.50;;;;;;;7.41;100.00;101071.41;5029066;28;20069;-86
2023/01/04 04:00:13;;;;;;;1.50;1.40;;;;;;;7.44;100.00;101070.59;5028241;28;20045;-86
2023/01/04 04:02:41;;;;;;;1.85;1.50;;;;;;;7.47;100.00;101071.53;5031836;28;20410;-85
2023/01/04 04:10:50;;;;;;;2.35;1.60;;;;;;;7.57;100.00;101064.72;5007781;28;20046;-86
2023/01/04 04:13:17;;;;;;;1.88;1.50;;;;;;;7.62;100.00;101063.06;5000199;28;20053;-85
2023/01/04 04:15:45;;;;;;;3.55;1.30;;;;;;;7.67;100.00;101055.28;5029059;28;20053;-86
2023/01/04 04:18:12;;;;;;;1.20;1.20;;;;;;;7.71;100.00;101047.50;5039870;28;20064;-86
2023/01/04 04:20:39;;;;;;;1.27;1.20;;;;;;;7.78;100.00;101048.47;5013091;28;20049;-86
2023/01/04 04:23:07;;;;;;;1.17;1.08;;;;;;;7.83;100.00;101038.97;5012884;28;20049;-86
2023/01/04 04:25:34;;;;;;;1.00;1.00;;;;;;;7.85;100.00;101032.00;5014103;28;20045;-86
2023/01/04 04:28:01;;;;;;;1.00;1.00;;;;;;;7.92;100.00;101017.22;5024738;28;20049;-86
2023/01/04 04:30:29;;;;;;;1.10;1.00;;;;;;;7.97;100.00;101015.56;5006026;28;20041;-85
2023/01/04 04:32:56;;;;;;;1.20;1.10;;;;;;;8.00;100.00;101006.00;5009078;28;20059;-85
2023/01/04 04:35:24;;;;;;;1.15;1.08;;;;;;;8.06;100.00;101009.59;5035629;28;20045;-85
2023/01/04 04:37:52;;;;;;;0.95;0.95;;;;;;;8.09;100.00;101005.28;5021446;28;20046;-86
2023/01/04 04:43:07;;;;;;;1.20;1.15;;;;;;;8.16;100.00;100990.50;5037948;28;20057;-85
2023/01/04 04:45:35;;;;;;;1.30;1.20;;;;;;;8.19;100.00;100991.44;5025377;28;20054;-86
2023/01/04 04:48:02;;;;;;;1.13;1.13;;;;;;;8.24;100.00;100990.63;5014641;28;20395;-85
2023/01/04 04:50:30;;;;;;;1.40;1.30;;;;;;;8.28;100.00;100990.69;5020003;28;20044;-86
2023/01/04 04:52:57;;;;;;;2.25;1.85;;;;;;;8.32;100.00;100986.38;5049400;28;20053;-85
2023/01/04 04:55:25;;;;;;;1.65;1.55;;;;;;;8.36;100.00;100978.56;5037448;28;20049;-85
2023/01/04 04:57:52;;;;;;;1.70;1.60;;;;;;;8.40;100.00;100980.34;5015886;28;20052;-85
2023/01/04 05:00:19;;;;;;;1.33;1.33;;;;;;;8.45;100.00;100967.34;5027512;28;20075;-86
2023/01/04 05:02:47;;;;;;;1.98;1.88;;;;;;;8.49;100.00;100974.41;4992196;28;20068;-85
2023/01/04 05:05:14;;;;;;;1.98;1.88;;;;;;;8.51;100.00;100967.41;5035465;28;20046;-86
2023/01/04 05:07:42;;;;;;;1.92;1.83;;;;;;;8.55;100.00;100970.97;5011516;28;20061;-85
2023/01/04 05:10:09;;;;;;;1.90;1.80;;;;;;;8.59;100.00;100973.66;5035271;28;20056;-86
2023/01/04 05:15:46;;;;;;;1.98;1.88;;;;;;;8.69;100.00;100976.41;5005853;28;20033;-85
2023/01/04 05:18:16;;;;;;;2.08;1.90;;;;;;;8.72;100.00;100965.94;5034764;28;20045;-86
2023/01/04 05:20:43;;;;;;;2.10;1.90;;;;;;;8.76;100.00;100962.47;5051757;28;20475;-85
2023/01/04 05:23:13;;;;;;;2.00;1.90;;;;;;;8.78;100.00;100966.00;5025629;28;20045;-86
2023/01/04 05:25:41;;;;;;;1.90;1.80;;;;;;;8.81;100.00;100965.16;5029858;28;20060;-86
2023/01/04 05:28:09;;;;;;;2.25;2.15;;;;;;;8.83;100.00;100966.06;5034378;28;20299;-87
2023/01/04 05:30:52;;;;;;;3.13;2.15;;;;;;;8.86;100.00;100960.84;4999474;28;20084;-86
2023/01/04 05:33:23;;;;;;;2.03;1.88;;;;;;;8.90;100.00;100966.16;5008237;28;20050;-85
2023/01/04 05:35:51;;;;;;;;;;;;;;;8.93;100.00;100967.94;5011107;28;20056;-86
2023/01/04 05:42:24;;;;;;;2.83;1.58;;;;;;;8.99;100.00;100965.38;5010643;28;23180;-86
2023/01/04 05:44:54;;;;;;;2.38;1.55;;;;;;;9.06;100.00;100954.06;5008321;28;20054;-86
2023/01/04 05:47:23;;;;;;;1.70;1.60;;;;;;;9.12;100.00;100942.75;5003480;28;20057;-85
2023/01/04 05:49:51;;;;;;;3.80;1.80;;;;;;;9.16;100.00;100953.28;5033948;28;20060;-86
2023/01/04 05:52:19;;;;;;;1.95;1.85;;;;;;;9.19;100.00;100952.47;5038561;28;20048;-86
2023/01/04 05:54:46;;;;;;;1.60;1.50;;;;;;;9.21;100.00;100945.47;5017956;28;20491;-86
2023/01/04 05:57:15;;;;;;;3.40;1.83;;;;;;;9.27;100.00;100932.38;5010908;28;20089;-86
2023/01/04 05:59:44;;;;;;;1.88;1.75;;;;;;;9.32;100.00;100930.69;5015049;28;20064;-86
2023/01/04 06:02:18;;;;;;;1.58;1.48;;;;;;;9.35;100.00;100919.31;5008420;28;20052;-86
2023/01/04 06:04:46;;;;;;;4.20;1.40;;;;;;;9.39;100.00;100917.59;5014651;28;20511;-85
2023/01/04 06:07:21;;;;;;;2.40;1.52;;;;;;;9.41;100.00;100931.63;5014800;28;20049;-85
2023/01/04 06:09:48;;;;;;;1.63;1.52;;;;;;;9.40;100.00;100932.50;5028805;28;20061;-85
2023/01/04 06:12:16;;;;;;;2.10;1.40;;;;;;;9.40;100.00;100925.50;5026647;28;20053;-86
2023/01/04 06:14:44;;;;;;;1.30;1.20;;;;;;;9.38;100.00;100911.44;5011996;28;20562;-84
2023/01/04 06:17:12;;;;;;;1.25;1.20;;;;;;;9.39;100.00;100922.84;5032699;28;20684;-86
2023/01/04 06:19:42;;;;;;;1.55;1.45;;;;;;;9.38;100.00;100921.09;5032840;28;20060;-85
2023/01/04 06:22:10;;;;;;;1.23;1.23;;;;;;;9.36;100.00;100908.81;5027717;28;20049;-86
2023/01/04 06:24:37;;;;;;;1.67;1.50;;;;;;;9.35;100.00;100914.03;5015392;28;20053;-86
2023/01/04 06:27:08;;;;;;;1.33;1.23;;;;;;;9.35;100.00;100925.44;5009348;28;20522;-85
2023/01/04 06:29:36;;;;;;;1.30;1.17;;;;;;;9.35;100.00;100920.19;5019255;28;20414;-85
2023/01/04 06:32:04;;;;;;;2.03;1.30;;;;;;;9.35;100.00;100930.69;5009657;28;20506;-85
2023/01/04 06:34:31;;;;;;;1.25;1.15;;;;;;;9.35;100.00;100932.44;5029002;28;20090;-86
2023/01/04 06:36:59;;;;;;;4.07;1.33;;;;;;;9.36;100.00;100926.34;5018578;28;20046;-86
2023/01/04 06:39:27;;;;;;;1.15;1.10;;;;;;;9.36;100.00;100927.22;5021300;28;20158;-86
2023/01/04 06:41:54;;;;;;;1.40;1.30;;;;;;;9.40;100.00;100920.25;5031403;28;20045;-85
2023/01/04 06:44:31;;;;;;;1.25;1.25;;;;;;;9.42;100.00;100917.63;5017293;28;20053;-85
2023/01/04 06:46:59;;;;;;;1.90;1.30;;;;;;;9.43;100.00;100917.63;5021669;28;20092;-84
2023/01/04 06:49:26;;;;;;;2.88;1.42;;;;;;;9.43;100.00;100911.47;4998789;28;20060;-82
2023/01/04 06:51:53;;;;;;;1.95;1.70;;;;;;;9.45;100.00;100925.53;5031280;28;20053;-84
2023/01/04 06:54:20;;;;;;;1.60;1.35;;;;;;;9.44;100.00;100916.75;5030953;28;20052;-84
2023/01/04 06:56:49;;;;;;;3.13;1.50;;;;;;;9.45;100.00;100921.16;5017675;28;20041;-84
2023/01/04 06:59:16;;;;;;;1.80;1.70;;;;;;;9.44;100.00;100921.16;4982626;28;20053;-83
2023/01/04 07:01:44;;;;;;;1.90;1.50;;;;;;;9.44;100.00;100910.63;4999164;28;20498;-85
2023/01/04 07:04:11;;;;;;;2.60;1.60;;;;;;;9.45;100.00;100917.63;5002325;28;20050;-84
2023/01/04 07:06:39;;;;;;;2.58;1.58;;;;;;;9.44;100.00;100906.25;5022122;28;20045;-84
2023/01/04 07:09:07;;;;;;;3.58;1.52;;;;;;;9.45;100.00;100912.38;5034519;28;20054;-83
2023/01/04 07:11:34;;;;;;;2.33;1.60;;;;;;;9.46;100.00;100908.88;5012256;28;20037;-84
2023/01/04 07:14:01;;;;;;;1.58;1.48;;;;;;;9.47;100.00;100908.00;5027723;28;20053;-84
2023/01/04 07:16:29;;;;;;;1.83;1.42;;;;;;;9.48;100.00;100902.75;4991229;28;20045;-84
2023/01/04 07:18:56;;;;;;;1.25;1.17;;;;;;;9.48;100.00;100896.63;5009911;28;20515;-83
2023/01/04 07:21:25;;;;;;;1.80;1.30;;;;;;;9.50;100.00;100902.78;4995903;28;20049;-83
2023/01/04 07:23:53;;;;;;;1.92;1.40;;;;;;;9.50;100.00;100905.41;5005738;28;20045;-82
2023/01/04 07:26:20;;;;;;;3.15;1.50;;;;;;;9.52;100.00;100904.53;5019473;28;20066;-82
2023/01/04 07:31:34;;;;;;;1.27;1.17;;;;;;;9.55;100.00;100895.81;5028498;28;20061;-83
2023/01/04 07:34:01;;;;;;;1.23;1.23;;;;;;;9.56;100.00;100898.47;5010391;28;20541;-82
2023/01/04 07:36:28;;;;;;;1.50;1.20;;;;;;;9.57;100.00;100894.94;5017794;28;20049;-83
2023/01/04 07:38:59;;;;;;;1.80;1.35;;;;;;;9.60;100.00;100901.97;4996790;28;20048;-80
2023/01/04 07:41:26;;;;;;;2.42;1.60;;;;;;;9.62;100.00;100892.38;5031863;28;20053;-83
2023/01/04 07:43:54;;;;;;;1.15;1.15;;;;;;;9.64;100.00;100890.63;5027543;28;20048;-83
2023/01/04 07:46:21;;;;;;;2.85;1.40;;;;;;;9.65;100.00;100905.53;5044777;28;20041;-84
2023/01/04 07:48:50;;;;;;;1.55;1.40;;;;;;;9.68;100.00;100884.53;5018196;28;20050;-83
2023/01/04 07:51:17;;;;;;;2.13;1.92;;;;;;;9.71;100.00;100889.78;5012143;28;20084;-83
2023/01/04 07:53:44;;;;;;;2.22;1.80;;;;;;;9.72;100.00;100886.28;5011901;28;20048;-84
2023/01/04 07:56:12;;;;;;;2.33;2.05;;;;;;;9.73;100.00;100881.91;5024079;28;20045;-84
2023/01/04 07:58:45;;;;;;;2.13;1.92;;;;;;;9.75;100.00;100877.53;5017412;28;20045;-83
2023/01/04 08:01:14;;;;;;;3.67;2.05;;;;;;;9.76;100.00;100881.94;5026258;28;20049;-84
2023/01/04 08:03:45;;;;;;;2.58;1.92;;;;;;;9.75;100.00;100886.34;5021392;28;20436;-85
2023/01/04 08:06:14;;;;;;;2.65;1.70;;;;;;;9.76;100.00;100880.19;5009703;28;20053;-84
2023/01/04 08:08:42;;;;;;;2.38;1.77;;;;;;;9.76;100.00;100888.06;5039329;28;20165;-84
2023/01/04 08:11:13;;;;;;;1.70;1.60;;;;;;;9.77;100.00;100888.94;5019257;28;20056;-84
2023/01/04 08:13:41;;;;;;;1.80;1.60;;;;;;;9.78;100.00;100884.59;5029438;28;20037;-83
2023/01/04 08:16:16;;;;;;;2.38;1.38;;;;;;;9.79;100.00;100878.44;5011633;28;20709;-83
2023/01/04 08:18:44;;;;;;;1.63;1.27;;;;;;;9.79;100.00;100887.19;5025508;28;20045;-86
2023/01/04 08:21:12;;;;;;;1.23;1.13;;;;;;;9.80;100.00;100896.88;4981310;28;20057;-86
2023/01/04 08:23:40;;;;;;;1.92;1.70;;;;;;;9.80;100.00;100896.00;4992917;28;20510;-85
2023/01/04 08:26:10;;;;;;;2.55;1.58;;;;;;;9.80;100.00;100898.63;5022758;28;20045;-84
2023/01/04 08:28:37;;;;;;;1.88;1.27;;;;;;;9.79;100.00;100881.94;5047104;28;20049;-84
2023/01/04 08:31:11;;;;;;;3.10;1.27;;;;;;;9.81;100.00;100889.84;5011926;28;20452;-85
2023/01/04 08:33:40;;;;;;;2.78;1.42;;;;;;;9.80;100.00;100893.38;5012806;28;20482;-86
2023/01/04 08:36:24;;;;;;;2.33;1.20;;;;;;;9.82;100.00;100891.63;5010284;28;20071;-85
2023/01/04 08:38:56;;;;;;;3.08;1.30;;;;;;;9.82;100.00;100891.63;5004522;28;20414;-84
2023/01/04 08:41:30;;;;;;;6.30;1.60;;;;;;;9.83;100.00;100898.63;5029182;28;20418;-84
2023/01/04 08:44:21;;;;;;;1.02;1.02;;;;;;;9.84;100.00;100896.03;5023283;28;20057;-84
2023/01/04 08:46:52;;;;;;;1.55;1.35;;;;;;;9.85;100.00;100897.81;5043234;28;20068;-84
2023/01/04 08:49:21;;;;;;;1.00;1.00;;;;;;;9.85;100.00;100887.28;5011942;28;20052;-82
2023/01/04 08:51:49;;;;;;;1.10;1.00;;;;;;;9.87;100.00;100875.00;5021477;28;20042;-84
2023/01/04 08:54:17;;;;;;;1.65;1.10;;;;;;;9.89;100.00;100893.44;5033762;28;20491;-84
2023/01/04 08:56:44;;;;;;;4.45;1.45;;;;;;;9.89;100.00;100888.19;5025888;28;20056;-84
2023/01/04 08:59:12;;;;;;;1.00;1.00;;;;;;;9.89;100.00;100886.41;5021536;28;20049;-83
2023/01/04 09:01:40;;;;;;;4.22;1.58;;;;;;;9.90;100.00;100897.81;5009692;28;20058;-83
2023/01/04 09:04:10;;;;;;;;;;;;;;;9.89;100.00;100890.81;5026218;28;20042;-84
2023/01/04 09:06:38;;;;;;;2.35;1.10;;;;;;;9.90;100.00;100887.28;5027054;28;19912;-83
2023/01/04 09:09:05;;;;;;;1.42;1.00;;;;;;;9.90;100.00;100889.91;4996328;28;20061;-83
2023/01/04 09:11:34;;;;;;;1.48;1.30;;;;;;;9.90;100.00;100897.81;5029461;28;20052;-84
2023/01/04 09:14:01;;;;;;;1.08;1.02;;;;;;;9.91;100.00;100897.84;5033035;28;20042;-84
2023/01/04 09:16:36;;;;;;;1.27;1.15;;;;;;;9.91;100.00;100889.94;5030356;28;20050;-82
2023/01/04 09:19:05;;;;;;;1.08;1.05;;;;;;;9.90;100.00;100880.25;5024318;28;20037;-82
2023/01/04 09:21:33;;;;;;;2.17;1.40;;;;;;;9.90;100.00;100885.53;5044142;28;20490;-83
2023/01/04 09:24:01;;;;;;;1.00;1.00;;;;;;;9.91;100.00;100884.66;5007807;28;20042;-84
2023/01/04 09:26:28;;;;;;;1.77;1.30;;;;;;;9.90;100.00;100884.66;5012494;28;20494;-84
2023/01/04 09:28:56;;;;;;;1.27;1.15;;;;;;;9.91;100.00;100896.97;5023541;28;20042;-84
2023/01/04 09:31:26;;;;;;;0.93;0.90;;;;;;;9.92;100.00;100877.66;5027593;28;20436;-84
2023/01/04 09:33:56;;;;;;;1.48;1.38;;;;;;;9.92;100.00;100878.56;5028960;28;20057;-83
2023/01/04 09:36:45;;;;;;;2.33;0.95;;;;;;;9.94;100.00;100878.53;5044535;28;20053;-84
2023/01/04 09:39:13;;;;;;;3.58;1.30;;;;;;;9.94;100.00;100882.06;4985641;28;20076;-85
2023/01/04 09:41:59;;;;;;;1.10;1.00;;;;;;;9.95;100.00;100878.53;5028555;28;20045;-84
2023/01/04 09:44:36;;;;;;;1.20;0.90;;;;;;;9.95;100.00;100883.81;5029804;28;20046;-85
2023/01/04 09:47:31;;;;;;;3.83;1.20;;;;;;;9.95;100.00;100882.94;5025573;28;20057;-84
2023/01/04 09:50:15;;;;;;;3.80;1.40;;;;;;;9.97;100.00;100890.84;5036764;28;20051;-84
2023/01/04 09:52:55;;;;;;;3.28;1.42;;;;;;;9.96;100.00;100882.06;5040194;28;20151;-84
2023/01/04 09:55:32;;;;;;;2.17;1.20;;;;;;;9.99;100.00;100889.97;5014816;28;22044;-85
2023/01/04 09:58:13;;;;;;;4.18;1.63;;;;;;;10.00;100.00;100882.94;5022751;28;20045;-83
2023/01/04 10:00:45;;;;;;;7.07;2.05;;;;;;;10.04;100.00;100892.66;5047219;28;20057;-86
2023/01/04 10:03:28;;;;;;;7.28;2.45;;;;;;;10.06;100.00;100883.88;5040568;28;20512;-86
2023/01/04 10:05:56;;;;;;;7.50;1.98;;;;;;;10.09;100.00;100883.00;5031246;28;20487;-84
2023/01/04 10:08:24;;;;;;;6.57;2.80;;;;;;;10.12;100.00;100883.03;4996359;28;20060;-84
2023/01/04 10:11:10;;;;;;;7.90;1.77;;;;;;;10.12;100.00;100878.66;4997458;28;20042;-83
2023/01/04 10:13:56;;;;;;;10.57;2.47;;;;;;;10.14;100.00;100890.06;5044824;28;20041;-86
2023/01/04 10:16:41;;;;;;;6.03;2.03;;;;;;;10.16;100.00;100882.19;5040734;28;20045;-86
2023/01/04 10:19:39;;;;;;;6.78;2.47;;;;;;;10.18;100.00;100883.06;5030866;28;20446;-85
2023/01/04 10:23:01;;;;;;;8.50;2.38;;;;;;;10.23;100.00;100888.38;5030698;28;20513;-82
2023/01/04 10:25:47;;;;;;;10.05;2.45;;;;;;;10.27;100.00;100900.69;5023649;28;20052;-82
2023/01/04 10:28:14;;;;;;;13.68;2.53;;;;;;;10.29;100.00;100878.75;5029983;28;20053;-82
2023/01/04 10:31:04;;;;;;;9.38;3.13;;;;;;;10.32;100.00;100891.97;5024517;28;20053;-84
2023/01/04 10:34:05;;;;;;;11.50;2.88;;;;;;;10.34;100.00;100877.03;5036046;28;20044;-81
2023/01/04 10:36:33;;;;;;;15.10;3.58;;;;;;;10.39;100.00;100881.44;5024286;28;20033;-84
2023/01/04 10:39:04;;;;;;;9.25;2.80;;;;;;;10.42;100.00;100884.97;5029635;28;20076;-82
2023/01/04 10:41:37;;;;;;;12.77;2.60;;;;;;;10.46;100.00;100877.97;5005824;28;20482;-83
2023/01/04 10:44:44;;;;;;;11.25;3.20;;;;;;;10.49;100.00;100867.44;5009844;28;20049;-82
2023/01/04 10:47:30;;;;;;;13.65;2.90;;;;;;;10.51;100.00;100869.22;4987510;28;20060;-83
2023/01/04 10:50:03;;;;;;;12.00;2.40;;;;;;;10.52;100.00;100873.59;5017316;28;20053;-83
2023/01/04 10:52:40;;;;;;;14.93;3.10;;;;;;;10.55;100.00;100870.13;5031315;28;20041;-83
2023/01/04 10:55:26;;;;;;;12.63;2.72;;;;;;;10.58;100.00;100870.09;5023512;28;20053;-83
2023/01/04 10:58:05;;;;;;;13.88;3.38;;;;;;;10.61;100.00;100863.97;5019907;28;20046;-84
2023/01/04 11:00:49;;;;;;;20.00;4.28;;;;;;;10.65;100.00;100869.25;5022282;28;20056;-84
2023/01/04 11:03:20;;;;;;;19.00;3.67;;;;;;;10.68;100.00;100853.47;5027753;28;20064;-83
2023/01/04 11:06:08;;;;;;;11.40;3.10;;;;;;;10.71;100.00;100858.72;5020731;28;20052;-82
2023/01/04 11:08:44;;;;;;;15.25;3.40;;;;;;;10.75;100.00;100854.34;5034087;28;20045;-84
2023/01/04 11:11:22;;;;;;;17.73;3.35;;;;;;;10.76;100.00;100835.03;5034116;28;23864;-81
2023/01/04 11:13:50;;;;;;;19.85;3.15;;;;;;;10.80;100.00;100839.44;5009306;28;20037;-81
2023/01/04 11:16:18;;;;;;;24.10;3.50;;;;;;;10.83;100.00;100830.63;5025675;28;20045;-81
2023/01/04 11:18:49;;;;;;;19.67;3.20;;;;;;;10.86;100.00;100838.56;5002686;28;20029;-80
2023/01/04 11:21:21;;;;;;;23.27;3.78;;;;;;;10.89;100.00;100833.31;5020162;28;20056;-81
2023/01/04 11:23:49;;;;;;;27.67;5.10;;;;;;;10.91;100.00;100836.81;5029852;28;20052;-81
2023/01/04 11:26:24;;;;;;;19.75;4.15;;;;;;;10.93;100.00;100825.38;5033410;28;20041;-82
2023/01/04 11:28:56;;;;;;;27.02;4.93;;;;;;;10.95;100.00;100819.25;4990666;28;20037;-82
2023/01/04 11:31:27;;;;;;;25.65;3.53;;;;;;;10.98;100.00;100824.50;5049346;28;20037;-81
2023/01/04 11:33:56;;;;;;;21.42;4.45;;;;;;;11.01;100.00;100819.25;5021169;28;20060;-81
2023/01/04 11:36:32;;;;;;;27.80;4.57;;;;;;;11.03;100.00;100821.00;5038508;28;20532;-80
2023/01/04 11:39:00;;;;;;;20.55;4.03;;;;;;;11.06;100.00;100820.16;5027723;28;20050;-83
2023/01/04 11:41:27;;;;;;;26.63;5.35;;;;;;;11.10;100.00;100822.78;5046647;28;20057;-80
2023/01/04 11:44:04;;;;;;;15.18;4.07;;;;;;;11.12;100.00;100821.00;4999976;28;20041;-80
2023/01/04 11:46:33;;;;;;;16.10;3.55;;;;;;;11.11;100.00;100803.44;5016935;28;20490;-79
2023/01/04 11:49:01;;;;;;;15.38;3.80;;;;;;;11.14;100.00;100812.22;5020742;28;20053;-80
2023/01/04 11:51:28;;;;;;;27.70;4.10;;;;;;;11.14;100.00;100801.69;5023079;28;20044;-78
2023/01/04 11:54:00;;;;;;;15.50;2.78;;;;;;;11.15;100.00;100799.03;5015922;28;20399;-80
2023/01/04 11:56:29;;;;;;;19.45;3.38;;;;;;;11.18;100.00;100801.66;5027485;28;20045;-80
2023/01/04 11:59:05;;;;;;;17.33;3.17;;;;;;;11.20;100.00;100797.28;5016695;28;20053;-81
2023/01/04 12:01:39;;;;;;;15.00;3.55;;;;;;;11.21;100.00;100801.69;5000801;28;20048;-82
2023/01/04 12:04:22;;;;;;;13.77;3.42;;;;;;;11.22;100.00;100805.19;5032234;28;20041;-81
2023/01/04 12:07:03;;;;;;;16.70;2.90;;;;;;;11.23;100.00;100801.69;5017764;28;20048;-82
2023/01/04 12:09:31;;;;;;;15.95;3.30;;;;;;;11.23;100.00;100801.69;5006932;28;20041;-82
2023/01/04 12:11:59;;;;;;;20.50;3.63;;;;;;;11.22;100.00;100805.19;5032541;28;20041;-81
2023/01/04 12:14:36;;;;;;;18.05;3.80;;;;;;;11.22;100.00;100806.06;5036531;28;20418;-80
2023/01/04 12:17:12;;;;;;;19.85;4.03;;;;;;;11.22;100.00;100797.28;5001780;28;20045;-80
2023/01/04 12:19:42;;;;;;;17.05;3.70;;;;;;;11.23;100.00;100799.91;5016040;28;20080;-79
2023/01/04 12:22:35;;;;;;;17.23;4.00;;;;;;;11.25;100.00;100799.94;5020824;28;20045;-81
2023/01/04 12:25:08;;;;;;;14.52;3.35;;;;;;;11.25;100.00;100797.28;5025232;28;20046;-80
2023/01/04 12:27:36;;;;;;;17.25;3.90;;;;;;;11.26;100.00;100794.63;5006791;28;20049;-82
2023/01/04 12:30:05;;;;;;;15.93;3.83;;;;;;;11.27;100.00;100788.47;5026484;28;20720;-80
2023/01/04 12:32:33;;;;;;;15.20;4.03;;;;;;;11.27;100.00;100791.13;4993513;28;20399;-80
2023/01/04 12:35:00;;;;;;;14.98;3.42;;;;;;;11.27;100.00;100772.66;5010489;28;20088;-80
2023/01/04 12:37:39;;;;;;;15.18;3.63;;;;;;;11.28;100.00;100778.81;5007114;28;20486;-80